createdAt,value
2023-02-21T06:03:05.053Z,524.00
2023-02-21T06:04:05.101Z,526.00
2023-02-21T06:05:05.065Z,529.00
2023-02-21T06:06:05.121Z,528.00
2023-02-21T06:07:05.149Z,529.00
2023-02-21T06:08:04.186Z,530.00
2023-02-21T06:09:05.217Z,530.00
2023-02-21T06:10:04.239Z,528.00
2023-02-21T06:11:05.232Z,527.00
2023-02-21T06:12:04.265Z,525.00
2023-02-21T06:13:05.295Z,525.00
2023-02-21T06:14:04.374Z,525.00
2023-02-21T06:15:05.428Z,525.00
2023-02-21T06:16:05.538Z,524.00
2023-02-21T06:17:05.539Z,524.00
2023-02-21T06:18:04.581Z,519.00
2023-02-21T06:19:05.650Z,519.00
2023-02-21T06:20:05.675Z,519.00
2023-02-21T06:21:05.732Z,521.00
2023-02-21T06:22:04.769Z,523.00
2023-02-21T06:23:05.813Z,524.00
2023-02-21T06:24:05.862Z,523.00
2023-02-21T06:25:04.904Z,525.00
2023-02-21T06:26:05.936Z,527.00
2023-02-21T06:27:05.988Z,526.00
2023-02-21T06:28:05.011Z,524.00
2023-02-21T06:29:05.061Z,520.00
2023-02-21T06:30:05.147Z,519.00
2023-02-21T06:31:06.192Z,522.00
2023-02-21T06:32:06.280Z,522.00
2023-02-21T06:33:06.230Z,523.00
2023-02-21T06:34:06.268Z,524.00
2023-02-21T06:35:06.361Z,525.00
2023-02-21T06:36:05.364Z,527.00
2023-02-21T06:37:06.396Z,526.00
2023-02-21T06:38:06.445Z,524.00
2023-02-21T06:39:05.466Z,524.00
2023-02-21T06:40:05.519Z,525.00
2023-02-21T06:41:06.548Z,527.00
2023-02-21T06:42:06.598Z,530.00
2023-02-21T06:43:06.612Z,532.00
2023-02-21T06:44:06.687Z,534.00
2023-02-21T06:45:05.679Z,536.00
2023-02-21T06:46:06.759Z,534.00
2023-02-21T06:47:06.763Z,532.00
2023-02-21T06:48:06.785Z,531.00
2023-02-21T06:49:06.830Z,530.00
2023-02-21T06:50:09.831Z,530.00
2023-02-21T06:51:06.892Z,530.00
2023-02-21T06:52:06.864Z,531.00
2023-02-21T06:53:06.835Z,533.00
2023-02-21T06:54:06.851Z,533.00
2023-02-21T06:55:06.883Z,531.00
2023-02-21T06:56:05.818Z,532.00
2023-02-21T06:57:13.159Z,531.00
2023-02-21T06:58:06.807Z,531.00
2023-02-21T06:59:06.807Z,531.00
2023-02-21T07:00:06.816Z,530.00
2023-02-21T07:01:06.780Z,530.00
2023-02-21T07:02:06.771Z,530.00
2023-02-21T07:03:07.172Z,527.00
2023-02-21T07:04:06.765Z,526.00
2023-02-21T07:05:06.784Z,526.00
2023-02-21T07:06:06.746Z,525.00
2023-02-21T07:07:06.780Z,524.00
2023-02-21T07:08:06.734Z,527.00
2023-02-21T07:09:05.723Z,527.00
2023-02-21T07:10:06.732Z,525.00
2023-02-21T07:11:06.724Z,527.00
2023-02-21T07:12:06.734Z,529.00
2023-02-21T07:13:06.719Z,530.00
2023-02-21T07:14:06.703Z,535.00
2023-02-21T07:15:06.686Z,539.00
2023-02-21T07:16:06.798Z,542.00
2023-02-21T07:17:05.687Z,545.00
2023-02-21T07:18:06.681Z,547.00
2023-02-21T07:19:05.670Z,548.00
2023-02-21T07:20:06.652Z,549.00
2023-02-21T07:21:05.656Z,550.00
2023-02-21T07:22:06.689Z,553.00
2023-02-21T07:23:05.745Z,555.00
2023-02-21T07:24:05.751Z,556.00
2023-02-21T07:25:06.795Z,562.00
2023-02-21T07:26:06.816Z,568.00
2023-02-21T07:27:06.835Z,568.00
2023-02-21T07:28:05.872Z,570.00
2023-02-21T07:29:06.955Z,571.00
2023-02-21T07:30:06.974Z,573.00
2023-02-21T07:31:07.002Z,573.00
2023-02-21T07:32:07.019Z,577.00
2023-02-21T07:33:06.026Z,581.00
2023-02-21T07:34:07.056Z,585.00
2023-02-21T07:35:07.098Z,593.00
2023-02-21T07:36:07.103Z,603.00
2023-02-21T07:37:07.130Z,611.00
2023-02-21T07:38:07.169Z,616.00
2023-02-21T07:39:06.192Z,622.00
2023-02-21T07:40:07.208Z,627.00
2023-02-21T07:41:07.237Z,634.00
2023-02-21T07:42:07.249Z,635.00
2023-02-21T07:43:06.249Z,642.00
2023-02-21T07:44:06.280Z,651.00
2023-02-21T07:45:07.294Z,653.00
2023-02-21T07:46:07.367Z,663.00
2023-02-21T07:47:07.385Z,673.00
2023-02-21T07:48:06.364Z,681.00
2023-02-21T07:49:07.373Z,693.00
2023-02-21T07:50:07.393Z,699.00
2023-02-21T07:51:07.436Z,708.00
2023-02-21T07:52:07.700Z,715.00
2023-02-21T07:53:08.669Z,724.00
2023-02-21T07:54:07.453Z,730.00
2023-02-21T07:55:06.465Z,735.00
2023-02-21T07:56:07.442Z,783.00
2023-02-21T07:57:07.456Z,858.00
2023-02-21T07:58:07.686Z,845.00
2023-02-21T07:59:07.438Z,843.00
2023-02-21T08:00:07.429Z,851.00
2023-02-21T08:01:07.418Z,861.00
2023-02-21T08:02:07.404Z,863.00
2023-02-21T08:03:06.389Z,867.00
2023-02-21T08:04:07.404Z,870.00
2023-02-21T08:05:07.419Z,873.00
2023-02-21T08:06:07.375Z,878.00
2023-02-21T08:07:07.385Z,876.00
2023-02-21T08:08:07.358Z,880.00
2023-02-21T08:09:07.351Z,886.00
2023-02-21T08:10:06.345Z,898.00
2023-02-21T08:11:07.396Z,910.00
2023-02-21T08:12:07.341Z,920.00
2023-02-21T08:13:07.310Z,934.00
2023-02-21T08:14:07.317Z,944.00
2023-02-21T08:15:07.298Z,951.00
2023-02-21T08:16:07.330Z,963.00
2023-02-21T08:17:07.305Z,970.00
2023-02-21T08:18:07.272Z,978.00
2023-02-21T08:19:07.261Z,986.00
2023-02-21T08:20:06.265Z,989.00
2023-02-21T08:21:07.262Z,995.00
2023-02-21T08:22:06.253Z,997.00
2023-02-21T08:23:06.259Z,1001.00
2023-02-21T08:24:07.239Z,1002.00
2023-02-21T08:25:07.234Z,1004.00
2023-02-21T08:26:07.222Z,1008.00
2023-02-21T08:27:07.239Z,1009.00
2023-02-21T08:28:07.210Z,1011.00
2023-02-21T08:29:07.207Z,1012.00
2023-02-21T08:30:07.223Z,1013.00
2023-02-21T08:31:07.246Z,1016.00
2023-02-21T08:32:06.254Z,1020.00
2023-02-21T08:33:07.183Z,1023.00
2023-02-21T08:34:07.170Z,1026.00
2023-02-21T08:35:07.167Z,1030.00
2023-02-21T08:36:06.166Z,1035.00
2023-02-21T08:37:07.164Z,1036.00
2023-02-21T08:38:07.134Z,1036.00
2023-02-21T08:39:07.144Z,1035.00
2023-02-21T08:40:07.131Z,1039.00
2023-02-21T08:41:07.131Z,1042.00
2023-02-21T08:42:07.131Z,1044.00
2023-02-21T08:43:07.166Z,1050.00
2023-02-21T08:44:07.097Z,1062.00
2023-02-21T08:45:07.105Z,1070.00
2023-02-21T08:46:06.087Z,1080.00
2023-02-21T08:47:07.085Z,1095.00
2023-02-21T08:48:06.203Z,1101.00
2023-02-21T08:49:07.066Z,1108.00
2023-02-21T08:50:07.072Z,1118.00
2023-02-21T08:51:07.057Z,1141.00
2023-02-21T08:52:07.048Z,1247.00
2023-02-21T08:53:06.191Z,1730.00
2023-02-21T08:54:07.052Z,1659.00
2023-02-21T08:55:07.052Z,1317.00
2023-02-21T08:56:07.046Z,1305.00
2023-02-21T08:57:07.036Z,1337.00
2023-02-21T08:58:06.041Z,1293.00
2023-02-21T08:59:07.054Z,1275.00
2023-02-21T09:00:06.010Z,1283.00
2023-02-21T09:01:07.089Z,1285.00
2023-02-21T09:02:07.035Z,1300.00
2023-02-21T09:03:05.991Z,1317.00
2023-02-21T09:04:05.979Z,1304.00
2023-02-21T09:05:06.958Z,1304.00
2023-02-21T09:06:06.961Z,1294.00
2023-02-21T09:07:06.974Z,1287.00
2023-02-21T09:08:06.960Z,1292.00
2023-02-21T09:09:06.929Z,1290.00
2023-02-21T09:10:06.924Z,1291.00
2023-02-21T09:11:06.982Z,1279.00
2023-02-21T09:12:06.911Z,1265.00
2023-02-21T09:13:06.933Z,1254.00
2023-02-21T09:14:06.895Z,1248.00
2023-02-21T09:15:06.946Z,1217.00
2023-02-21T09:16:06.977Z,1178.00
2023-02-21T09:17:06.881Z,1172.00
2023-02-21T09:18:06.870Z,1146.00
2023-02-21T09:19:06.907Z,1133.00
2023-02-21T09:20:06.869Z,1108.00
2023-02-21T09:21:05.859Z,1092.00
2023-02-21T09:22:06.846Z,1087.00
2023-02-21T09:23:06.846Z,1063.00
2023-02-21T09:24:06.841Z,1049.00
2023-02-21T09:25:06.886Z,1046.00
2023-02-21T09:26:06.909Z,1052.00
2023-02-21T09:27:06.958Z,1044.00
2023-02-21T09:28:06.997Z,1019.00
2023-02-21T09:29:07.016Z,1016.00
2023-02-21T09:30:07.126Z,1011.00
2023-02-21T09:31:06.125Z,1011.00
2023-02-21T09:32:07.212Z,1002.00
2023-02-21T09:33:07.170Z,950.00
2023-02-21T09:34:07.184Z,948.00
2023-02-21T09:35:06.214Z,949.00
2023-02-21T09:36:06.234Z,1003.00
2023-02-21T09:37:07.282Z,1017.00
2023-02-21T09:38:07.318Z,965.00
2023-02-21T09:39:07.270Z,968.00
2023-02-21T09:40:07.303Z,979.00
2023-02-21T09:41:06.430Z,933.00
2023-02-21T09:42:07.403Z,936.00
2023-02-21T09:43:07.401Z,927.00
2023-02-21T09:44:07.412Z,921.00
2023-02-21T09:45:07.397Z,910.00
2023-02-21T09:46:07.557Z,898.00
2023-02-21T09:47:06.441Z,888.00
2023-02-21T09:48:07.420Z,877.00
2023-02-21T09:49:07.433Z,864.00
2023-02-21T09:50:07.447Z,842.00
2023-02-21T09:51:07.447Z,836.00
2023-02-21T09:52:07.505Z,833.00
2023-02-21T09:53:07.490Z,826.00
2023-02-21T09:54:06.504Z,827.00
2023-02-21T09:55:07.514Z,825.00
2023-02-21T09:56:07.524Z,822.00
2023-02-21T09:57:06.566Z,816.00
2023-02-21T09:58:06.738Z,812.00
2023-02-21T09:59:07.555Z,827.00
2023-02-21T10:00:07.574Z,849.00
2023-02-21T10:01:07.594Z,870.00
2023-02-21T10:02:07.580Z,876.00
2023-02-21T10:03:07.687Z,883.00
2023-02-21T10:04:06.609Z,895.00
2023-02-21T10:05:06.645Z,896.00
2023-02-21T10:06:06.685Z,894.00
2023-02-21T10:07:07.735Z,898.00
2023-02-21T10:08:07.777Z,910.00
2023-02-21T10:09:06.823Z,917.00
2023-02-21T10:10:07.862Z,910.00
2023-02-21T10:11:07.908Z,906.00
2023-02-21T10:12:07.932Z,883.00
2023-02-21T10:13:07.967Z,892.00
2023-02-21T10:14:06.975Z,895.00
2023-02-21T10:15:08.029Z,899.00
2023-02-21T10:16:08.087Z,902.00
2023-02-21T10:17:08.084Z,904.00
2023-02-21T10:18:08.119Z,909.00
2023-02-21T10:19:08.165Z,907.00
2023-02-21T10:20:07.195Z,905.00
2023-02-21T10:21:08.240Z,920.00
2023-02-21T10:22:08.300Z,924.00
2023-02-21T10:23:07.354Z,922.00
2023-02-21T10:24:08.421Z,928.00
2023-02-21T10:25:07.473Z,936.00
2023-02-21T10:26:07.528Z,926.00
2023-02-21T10:27:07.583Z,926.00
2023-02-21T10:28:07.651Z,927.00
2023-02-21T10:29:08.713Z,929.00
2023-02-21T10:30:08.809Z,931.00
2023-02-21T10:31:08.905Z,938.00
2023-02-21T10:32:08.994Z,944.00
2023-02-21T10:33:08.915Z,951.00
2023-02-21T10:34:08.970Z,959.00
2023-02-21T10:35:08.037Z,955.00
2023-02-21T10:36:09.059Z,951.00
2023-02-21T10:37:08.128Z,945.00
2023-02-21T10:38:08.166Z,948.00
2023-02-21T10:39:09.202Z,964.00
2023-02-21T10:40:09.366Z,969.00
2023-02-21T10:41:09.275Z,979.00
2023-02-21T10:42:09.296Z,985.00
2023-02-21T10:43:09.338Z,995.00
2023-02-21T10:44:09.394Z,1021.00
2023-02-21T10:45:09.454Z,949.00
2023-02-21T10:46:09.584Z,961.00
2023-02-21T10:47:09.591Z,952.00
2023-02-21T10:48:09.754Z,934.00
2023-02-21T10:49:09.656Z,926.00
2023-02-21T10:50:09.694Z,919.00
2023-02-21T10:51:08.692Z,895.00
2023-02-21T10:52:09.717Z,878.00
2023-02-21T10:53:09.893Z,873.00
2023-02-21T10:54:09.698Z,865.00
2023-02-21T10:55:11.879Z,861.00
2023-02-21T10:56:09.723Z,856.00
2023-02-21T10:57:08.703Z,855.00
2023-02-21T10:58:09.737Z,856.00
2023-02-21T10:59:09.699Z,853.00
2023-02-21T11:00:09.699Z,850.00
2023-02-21T11:01:09.706Z,850.00
2023-02-21T11:02:08.680Z,854.00
2023-02-21T11:03:09.683Z,855.00
2023-02-21T11:04:08.673Z,853.00
2023-02-21T11:05:09.658Z,853.00
2023-02-21T11:06:08.690Z,855.00
2023-02-21T11:07:08.702Z,853.00
2023-02-21T11:08:09.655Z,857.00
2023-02-21T11:09:09.632Z,856.00
2023-02-21T11:10:09.634Z,859.00
2023-02-21T11:11:09.634Z,859.00
2023-02-21T11:12:09.629Z,862.00
2023-02-21T11:13:08.617Z,863.00
2023-02-21T11:14:09.621Z,871.00
2023-02-21T11:15:09.594Z,875.00
2023-02-21T11:16:09.706Z,881.00
2023-02-21T11:17:09.597Z,884.00
2023-02-21T11:18:08.579Z,884.00
2023-02-21T11:19:09.587Z,888.00
2023-02-21T11:20:08.555Z,889.00
2023-02-21T11:21:09.571Z,895.00
2023-02-21T11:22:08.583Z,895.00
2023-02-21T11:23:08.562Z,896.00
2023-02-21T11:24:09.574Z,900.00
2023-02-21T11:25:08.907Z,901.00
2023-02-21T11:26:09.535Z,904.00
2023-02-21T11:27:09.516Z,907.00
2023-02-21T11:28:09.513Z,907.00
2023-02-21T11:29:09.507Z,915.00
2023-02-21T11:30:08.538Z,918.00
2023-02-21T11:31:08.565Z,922.00
2023-02-21T11:32:09.564Z,919.00
2023-02-21T11:33:09.505Z,921.00
2023-02-21T11:34:09.465Z,925.00
2023-02-21T11:35:09.472Z,928.00
2023-02-21T11:36:09.459Z,935.00
2023-02-21T11:37:09.453Z,935.00
2023-02-21T11:38:08.494Z,936.00
2023-02-21T11:39:09.428Z,937.00
2023-02-21T11:40:09.425Z,939.00
2023-02-21T11:41:08.484Z,942.00
2023-02-21T11:42:08.485Z,941.00
2023-02-21T11:43:09.768Z,942.00
2023-02-21T11:44:09.573Z,947.00
2023-02-21T11:45:08.597Z,952.00
2023-02-21T11:46:08.643Z,959.00
2023-02-21T11:47:09.650Z,958.00
2023-02-21T11:48:09.780Z,959.00
2023-02-21T11:49:09.729Z,961.00
2023-02-21T11:50:09.766Z,963.00
2023-02-21T11:51:08.828Z,966.00
2023-02-21T11:52:08.866Z,966.00
2023-02-21T11:53:09.909Z,967.00
2023-02-21T11:54:09.946Z,971.00
2023-02-21T11:55:09.974Z,971.00
2023-02-21T11:56:10.012Z,971.00
2023-02-21T11:57:10.083Z,973.00
2023-02-21T11:58:09.105Z,974.00
2023-02-21T11:59:09.162Z,976.00
2023-02-21T12:00:09.183Z,981.00
2023-02-21T12:01:10.181Z,983.00
2023-02-21T12:02:09.250Z,984.00
2023-02-21T12:03:09.251Z,986.00
2023-02-21T12:04:10.274Z,988.00
2023-02-21T12:05:10.322Z,987.00
2023-02-21T12:06:09.405Z,993.00
2023-02-21T12:07:10.418Z,996.00
2023-02-21T12:08:10.421Z,1000.00
2023-02-21T12:09:10.471Z,1003.00
2023-02-21T12:10:09.518Z,1006.00
2023-02-21T12:11:10.533Z,1005.00
2023-02-21T12:12:10.581Z,1006.00
2023-02-21T12:13:09.623Z,1006.00
2023-02-21T12:14:10.666Z,1008.00
2023-02-21T12:15:09.686Z,1006.00
2023-02-21T12:16:10.776Z,1006.00
2023-02-21T12:17:10.749Z,1007.00
2023-02-21T12:18:09.770Z,1011.00
2023-02-21T12:19:10.785Z,1012.00
2023-02-21T12:20:10.806Z,1011.00
2023-02-21T12:21:09.841Z,1011.00
2023-02-21T12:22:09.888Z,1015.00
2023-02-21T12:23:10.889Z,1020.00
2023-02-21T12:24:10.932Z,1020.00
2023-02-21T12:25:09.969Z,1025.00
2023-02-21T12:26:10.007Z,1025.00
2023-02-21T12:27:09.996Z,1033.00
2023-02-21T12:28:12.949Z,1039.00
2023-02-21T12:29:10.983Z,1042.00
2023-02-21T12:30:11.012Z,1044.00
2023-02-21T12:31:10.033Z,1049.00
2023-02-21T12:32:11.021Z,1051.00
2023-02-21T12:33:10.963Z,1056.00
2023-02-21T12:34:09.960Z,1058.00
2023-02-21T12:35:10.956Z,1062.00
2023-02-21T12:36:10.941Z,1059.00
2023-02-21T12:37:10.969Z,1054.00
2023-02-21T12:38:09.938Z,1053.00
2023-02-21T12:39:10.939Z,1052.00
2023-02-21T12:40:10.931Z,1047.00
2023-02-21T12:41:10.921Z,1043.00
2023-02-21T12:42:10.007Z,1038.00
2023-02-21T12:43:10.897Z,1036.00
2023-02-21T12:44:10.906Z,1030.00
2023-02-21T12:45:10.894Z,1028.00
2023-02-21T12:46:10.910Z,1027.00
2023-02-21T12:47:10.888Z,1024.00
2023-02-21T12:48:10.863Z,1021.00
2023-02-21T12:49:10.860Z,1020.00
2023-02-21T12:50:09.849Z,1021.00
2023-02-21T12:51:10.856Z,1014.00
2023-02-21T12:52:10.836Z,1011.00
2023-02-21T12:53:09.837Z,1008.00
2023-02-21T12:54:10.834Z,1008.00
2023-02-21T12:55:09.837Z,1007.00
2023-02-21T12:56:10.805Z,1007.00
2023-02-21T12:57:10.831Z,1004.00
2023-02-21T12:58:10.817Z,999.00
2023-02-21T12:59:10.788Z,995.00
2023-02-21T13:00:10.943Z,996.00
2023-02-21T13:01:10.802Z,993.00
2023-02-21T13:02:10.777Z,990.00
2023-02-21T13:03:10.828Z,988.00
2023-02-21T13:04:09.764Z,984.00
2023-02-21T13:05:10.764Z,982.00
2023-02-21T13:06:09.736Z,982.00
2023-02-21T13:07:10.727Z,980.00
2023-02-21T13:08:09.728Z,982.00
2023-02-21T13:09:10.724Z,981.00
2023-02-21T13:10:10.711Z,984.00
2023-02-21T13:11:10.692Z,979.00
2023-02-21T13:12:10.712Z,973.00
2023-02-21T13:13:10.731Z,969.00
2023-02-21T13:14:10.757Z,965.00
2023-02-21T13:15:10.774Z,962.00
2023-02-21T13:16:09.810Z,958.00
2023-02-21T13:17:10.781Z,957.00
2023-02-21T13:18:10.794Z,958.00
2023-02-21T13:19:09.803Z,957.00
2023-02-21T13:20:09.840Z,952.00
2023-02-21T13:21:10.832Z,948.00
2023-02-21T13:22:10.828Z,944.00
2023-02-21T13:23:10.849Z,941.00
2023-02-21T13:24:10.880Z,936.00
2023-02-21T13:25:10.883Z,936.00
2023-02-21T13:26:09.905Z,936.00
2023-02-21T13:27:09.904Z,933.00
2023-02-21T13:28:10.925Z,931.00
2023-02-21T13:29:10.922Z,925.00
2023-02-21T13:30:10.981Z,923.00
2023-02-21T13:31:11.059Z,921.00
2023-02-21T13:32:11.118Z,915.00
2023-02-21T13:33:10.943Z,911.00
2023-02-21T13:34:10.956Z,907.00
2023-02-21T13:35:10.959Z,903.00
2023-02-21T13:36:10.967Z,900.00
2023-02-21T13:37:10.970Z,897.00
2023-02-21T13:38:10.966Z,895.00
2023-02-21T13:39:10.027Z,895.00
2023-02-21T13:40:10.994Z,892.00
2023-02-21T13:41:10.013Z,889.00
2023-02-21T13:42:11.000Z,890.00
2023-02-21T13:43:11.038Z,891.00
2023-02-21T13:44:11.061Z,891.00
2023-02-21T13:45:11.055Z,893.00
2023-02-21T13:46:12.113Z,888.00
2023-02-21T13:47:11.115Z,888.00
2023-02-21T13:48:11.179Z,890.00
2023-02-21T13:49:11.212Z,893.00
2023-02-21T13:50:11.245Z,891.00
2023-02-21T13:51:10.263Z,890.00
2023-02-21T13:52:10.302Z,889.00
2023-02-21T13:53:10.335Z,892.00
2023-02-21T13:54:11.448Z,892.00
2023-02-21T13:55:10.428Z,894.00
2023-02-21T13:56:11.474Z,901.00
2023-02-21T13:57:11.521Z,907.00
2023-02-21T13:58:10.547Z,912.00
2023-02-21T13:59:10.611Z,918.00
2023-02-21T14:00:10.639Z,921.00
2023-02-21T14:01:11.653Z,928.00
2023-02-21T14:02:11.716Z,932.00
2023-02-21T14:03:11.713Z,935.00
2023-02-21T14:04:11.839Z,937.00
2023-02-21T14:05:11.837Z,941.00
2023-02-21T14:06:10.896Z,948.00
2023-02-21T14:07:11.951Z,952.00
2023-02-21T14:08:12.017Z,959.00
2023-02-21T14:09:12.121Z,966.00
2023-02-21T14:10:11.135Z,972.00
2023-02-21T14:11:11.192Z,979.00
2023-02-21T14:12:12.248Z,988.00
2023-02-21T14:13:11.327Z,990.00
2023-02-21T14:14:11.373Z,998.00
2023-02-21T14:15:12.455Z,1005.00
2023-02-21T14:16:12.591Z,1010.00
2023-02-21T14:17:11.550Z,1015.00
2023-02-21T14:18:12.635Z,1022.00
2023-02-21T14:19:12.718Z,1028.00
2023-02-21T14:20:11.734Z,1033.00
2023-02-21T14:21:13.226Z,1037.00
2023-02-21T14:22:12.851Z,1044.00
2023-02-21T14:23:12.914Z,1049.00
2023-02-21T14:24:13.018Z,1053.00
2023-02-21T14:25:12.396Z,1058.00
2023-02-21T14:26:13.369Z,1065.00
2023-02-21T14:27:12.207Z,1080.00
2023-02-21T14:28:12.210Z,1089.00
2023-02-21T14:29:12.329Z,1095.00
2023-02-21T14:30:13.407Z,1101.00
2023-02-21T14:31:13.724Z,1103.00
2023-02-21T14:32:13.602Z,1106.00
2023-02-21T14:33:14.361Z,1113.00
2023-02-21T14:34:12.614Z,1119.00
2023-02-21T14:35:13.638Z,1123.00
2023-02-21T14:36:13.770Z,1127.00
2023-02-21T14:37:13.751Z,1133.00
2023-02-21T14:38:13.827Z,1136.00
2023-02-21T14:39:13.873Z,1141.00
2023-02-21T14:40:12.961Z,1144.00
2023-02-21T14:41:13.088Z,1149.00
2023-02-21T14:42:14.053Z,1152.00
2023-02-21T14:43:13.126Z,1150.00
2023-02-21T14:44:13.184Z,1151.00
2023-02-21T14:45:14.289Z,1152.00
2023-02-21T14:46:14.313Z,1152.00
2023-02-21T14:47:14.346Z,1157.00
2023-02-21T14:48:14.412Z,1158.00
2023-02-21T14:49:13.468Z,1166.00
2023-02-21T14:50:14.550Z,1169.00
2023-02-21T14:51:13.952Z,1169.00
2023-02-21T14:52:13.647Z,1169.00
2023-02-21T14:53:14.732Z,1168.00
2023-02-21T14:54:14.781Z,1165.00
2023-02-21T14:55:14.831Z,1166.00
2023-02-21T14:56:14.872Z,1167.00
2023-02-21T14:57:14.940Z,1169.00
2023-02-21T14:58:15.004Z,1172.00
2023-02-21T14:59:15.064Z,1170.00
2023-02-21T15:00:14.098Z,1174.00
2023-02-21T15:01:15.493Z,1176.00
2023-02-21T15:02:14.197Z,1188.00
2023-02-21T15:03:14.247Z,1208.00
2023-02-21T15:04:14.351Z,1213.00
2023-02-21T15:05:14.292Z,1222.00
2023-02-21T15:06:14.434Z,1234.00
2023-02-21T15:07:15.326Z,1239.00
2023-02-21T15:08:15.362Z,1242.00
2023-02-21T15:09:15.409Z,1243.00
2023-02-21T15:10:15.445Z,1243.00
2023-02-21T15:11:15.748Z,1240.00
2023-02-21T15:12:14.540Z,1236.00
2023-02-21T15:13:15.609Z,1234.00
2023-02-21T15:14:14.654Z,1234.00
2023-02-21T15:15:14.692Z,1234.00
2023-02-21T15:16:14.723Z,1232.00
2023-02-21T15:17:14.729Z,1234.00
2023-02-21T15:18:14.769Z,1237.00
2023-02-21T15:19:15.796Z,1237.00
2023-02-21T15:20:14.830Z,1239.00
2023-02-21T15:21:15.110Z,1240.00
2023-02-21T15:22:14.965Z,1237.00
2023-02-21T15:23:14.985Z,1240.00
2023-02-21T15:24:16.022Z,1238.00
2023-02-21T15:25:15.073Z,1234.00
2023-02-21T15:26:16.077Z,1231.00
2023-02-21T15:27:16.095Z,1225.00
2023-02-21T15:28:15.134Z,1224.00
2023-02-21T15:29:16.158Z,1217.00
2023-02-21T15:30:15.267Z,1210.00
2023-02-21T15:31:16.619Z,1207.00
2023-02-21T15:32:16.264Z,1201.00
2023-02-21T15:33:16.305Z,1184.00
2023-02-21T15:34:16.304Z,1181.00
2023-02-21T15:35:16.322Z,1177.00
2023-02-21T15:36:16.333Z,1172.00
2023-02-21T15:37:16.339Z,1168.00
2023-02-21T15:38:16.360Z,1163.00
2023-02-21T15:39:16.348Z,1157.00
2023-02-21T15:40:16.783Z,1149.00
2023-02-21T15:41:15.686Z,1147.00
2023-02-21T15:42:15.405Z,1143.00
2023-02-21T15:43:16.422Z,1141.00
2023-02-21T15:44:15.430Z,1138.00
2023-02-21T15:45:15.495Z,1132.00
2023-02-21T15:46:16.569Z,1126.00
2023-02-21T15:47:16.501Z,1116.00
2023-02-21T15:48:16.508Z,1102.00
2023-02-21T15:49:16.538Z,1088.00
2023-02-21T15:50:16.573Z,1078.00
2023-02-21T15:51:16.853Z,1064.00
2023-02-21T15:52:16.592Z,1061.00
2023-02-21T15:53:16.619Z,1059.00
2023-02-21T15:54:15.636Z,1053.00
2023-02-21T15:55:16.671Z,1042.00
2023-02-21T15:56:16.636Z,1034.00
2023-02-21T15:57:16.655Z,1022.00
2023-02-21T15:58:16.660Z,1002.00
2023-02-21T15:59:15.695Z,962.00
2023-02-21T16:00:16.764Z,914.00
2023-02-21T16:01:16.042Z,918.00
2023-02-21T16:02:15.836Z,911.00
2023-02-21T16:03:15.767Z,844.00
2023-02-21T16:04:15.795Z,849.00
2023-02-21T16:05:15.818Z,853.00
2023-02-21T16:06:16.847Z,847.00
2023-02-21T16:07:16.855Z,846.00
2023-02-21T16:08:16.880Z,842.00
2023-02-21T16:09:16.910Z,785.00
2023-02-21T16:10:15.972Z,777.00
2023-02-21T16:11:17.333Z,782.00
2023-02-21T16:12:17.015Z,783.00
2023-02-21T16:13:16.064Z,777.00
2023-02-21T16:14:17.100Z,771.00
2023-02-21T16:15:16.131Z,762.00
2023-02-21T16:16:16.171Z,759.00
2023-02-21T16:17:16.210Z,759.00
2023-02-21T16:18:17.257Z,752.00
2023-02-21T16:19:16.303Z,748.00
2023-02-21T16:20:16.343Z,734.00
2023-02-21T16:21:17.597Z,712.00
2023-02-21T16:22:17.410Z,698.00
2023-02-21T16:23:17.460Z,687.00
2023-02-21T16:24:16.538Z,679.00
2023-02-21T16:25:17.567Z,674.00
2023-02-21T16:26:16.739Z,675.00
2023-02-21T16:27:16.689Z,673.00
2023-02-21T16:28:16.700Z,667.00
2023-02-21T16:29:16.775Z,668.00
